sensor_id;sensor_type;location;lat;lon;timestamp;temperature;humidity
5174;DHT22;2606;50.934;6.934;2022-09-09T00:00:23;19.00;99.90
5174;DHT22;2606;50.934;6.934;2022-09-09T00:03:07;18.90;99.90
5174;DHT22;2606;50.934;6.934;2022-09-09T00:05:46;19.00;99.90
5174;DHT22;2606;50.934;6.934;2022-09-09T00:08:19;18.90;99.90
5174;DHT22;2606;50.934;6.934;2022-09-09T00:10:50;18.90;99.90
5174;DHT22;2606;50.934;6.934;2022-09-09T00:13:46;18.80;99.90
5174;DHT22;2606;50.934;6.934;2022-09-09T00:21:25;18.80;99.90
5174;DHT22;2606;50.934;6.934;2022-09-09T00:23:55;18.80;99.90
5174;DHT22;2606;50.934;6.934;2022-09-09T00:31:24;18.70;99.90
5174;DHT22;2606;50.934;6.934;2022-09-09T00:33:50;18.70;99.90
5174;DHT22;2606;50.934;6.934;2022-09-09T00:36:21;18.70;99.90
5174;DHT22;2606;50.934;6.934;2022-09-09T00:39:15;18.70;99.90
5174;DHT22;2606;50.934;6.934;2022-09-09T00:41:50;18.70;99.90
5174;DHT22;2606;50.934;6.934;2022-09-09T00:44:33;18.70;99.90
5174;DHT22;2606;50.934;6.934;2022-09-09T00:55:49;18.50;99.90
5174;DHT22;2606;50.934;6.934;2022-09-09T00:58:17;18.50;99.90
5174;DHT22;2606;50.934;6.934;2022-09-09T01:00:46;18.50;99.90
5174;DHT22;2606;50.934;6.934;2022-09-09T01:12:11;18.30;99.90
5174;DHT22;2606;50.934;6.934;2022-09-09T01:14:47;18.30;99.90
5174;DHT22;2606;50.934;6.934;2022-09-09T01:22:25;18.30;99.90
5174;DHT22;2606;50.934;6.934;2022-09-09T01:25:06;18.30;99.90
5174;DHT22;2606;50.934;6.934;2022-09-09T01:27:35;18.20;99.90
5174;DHT22;2606;50.934;6.934;2022-09-09T01:30:09;18.20;99.90
5174;DHT22;2606;50.934;6.934;2022-09-09T01:32:49;18.20;99.90
5174;DHT22;2606;50.934;6.934;2022-09-09T01:38:22;18.20;99.90
5174;DHT22;2606;50.934;6.934;2022-09-09T01:40:49;18.20;99.90
5174;DHT22;2606;50.934;6.934;2022-09-09T01:43:18;18.10;99.90
5174;DHT22;2606;50.934;6.934;2022-09-09T01:45:45;18.10;99.90
5174;DHT22;2606;50.934;6.934;2022-09-09T01:48:13;18.10;99.90
5174;DHT22;2606;50.934;6.934;2022-09-09T01:50:38;18.10;99.90
5174;DHT22;2606;50.934;6.934;2022-09-09T01:53:04;18.10;99.90
5174;DHT22;2606;50.934;6.934;2022-09-09T01:55:33;18.10;99.90
5174;DHT22;2606;50.934;6.934;2022-09-09T02:03:52;18.10;99.90
5174;DHT22;2606;50.934;6.934;2022-09-09T02:06:42;18.10;99.90
5174;DHT22;2606;50.934;6.934;2022-09-09T02:09:10;18.10;99.90
5174;DHT22;2606;50.934;6.934;2022-09-09T02:11:37;18.10;99.90
5174;DHT22;2606;50.934;6.934;2022-09-09T02:14:09;18.10;99.90
5174;DHT22;2606;50.934;6.934;2022-09-09T02:17:28;18.10;99.90
5174;DHT22;2606;50.934;6.934;2022-09-09T02:19:37;18.10;99.90
5174;DHT22;2606;50.934;6.934;2022-09-09T02:22:05;18.10;99.90
5174;DHT22;2606;50.934;6.934;2022-09-09T02:24:34;18.10;99.90
5174;DHT22;2606;50.934;6.934;2022-09-09T02:27:02;18.10;99.90
5174;DHT22;2606;50.934;6.934;2022-09-09T02:29:35;18.00;99.90
5174;DHT22;2606;50.934;6.934;2022-09-09T02:32:05;18.00;99.90
5174;DHT22;2606;50.934;6.934;2022-09-09T02:34:35;18.00;99.90
5174;DHT22;2606;50.934;6.934;2022-09-09T02:37:03;18.00;99.90
5174;DHT22;2606;50.934;6.934;2022-09-09T02:39:29;18.00;99.90
5174;DHT22;2606;50.934;6.934;2022-09-09T02:41:55;18.00;99.90
5174;DHT22;2606;50.934;6.934;2022-09-09T02:44:21;18.00;99.90
5174;DHT22;2606;50.934;6.934;2022-09-09T02:52:36;18.00;99.90
5174;DHT22;2606;50.934;6.934;2022-09-09T02:58:04;18.00;99.90
5174;DHT22;2606;50.934;6.934;2022-09-09T03:00:32;18.00;99.90
5174;DHT22;2606;50.934;6.934;2022-09-09T03:02:59;17.90;99.90
5174;DHT22;2606;50.934;6.934;2022-09-09T03:05:25;18.00;99.90
5174;DHT22;2606;50.934;6.934;2022-09-09T03:07:51;17.90;99.90
5174;DHT22;2606;50.934;6.934;2022-09-09T03:10:17;18.00;99.90
5174;DHT22;2606;50.934;6.934;2022-09-09T03:12:43;17.90;99.90
5174;DHT22;2606;50.934;6.934;2022-09-09T03:15:09;17.90;99.90
5174;DHT22;2606;50.934;6.934;2022-09-09T03:17:35;18.00;99.90
5174;DHT22;2606;50.934;6.934;2022-09-09T03:20:02;18.00;99.90
5174;DHT22;2606;50.934;6.934;2022-09-09T03:22:28;18.00;99.90
5174;DHT22;2606;50.934;6.934;2022-09-09T03:24:54;18.00;99.90
5174;DHT22;2606;50.934;6.934;2022-09-09T03:27:19;18.00;99.90
5174;DHT22;2606;50.934;6.934;2022-09-09T03:29:45;18.00;99.90
5174;DHT22;2606;50.934;6.934;2022-09-09T03:32:11;18.10;99.90
5174;DHT22;2606;50.934;6.934;2022-09-09T03:34:37;18.10;99.90
5174;DHT22;2606;50.934;6.934;2022-09-09T03:37:06;18.10;99.90
5174;DHT22;2606;50.934;6.934;2022-09-09T03:39:31;18.10;99.90
5174;DHT22;2606;50.934;6.934;2022-09-09T03:42:06;18.10;99.90
5174;DHT22;2606;50.934;6.934;2022-09-09T03:44:31;18.10;99.90
5174;DHT22;2606;50.934;6.934;2022-09-09T03:46:57;18.20;99.90
5174;DHT22;2606;50.934;6.934;2022-09-09T03:49:25;18.10;99.90
5174;DHT22;2606;50.934;6.934;2022-09-09T03:51:51;18.10;99.90
5174;DHT22;2606;50.934;6.934;2022-09-09T03:54:17;18.10;99.90
5174;DHT22;2606;50.934;6.934;2022-09-09T03:56:42;18.20;99.90
5174;DHT22;2606;50.934;6.934;2022-09-09T03:59:08;18.10;99.90
5174;DHT22;2606;50.934;6.934;2022-09-09T04:01:37;18.10;99.90
5174;DHT22;2606;50.934;6.934;2022-09-09T04:04:02;18.00;99.90
5174;DHT22;2606;50.934;6.934;2022-09-09T04:06:28;18.10;99.90
5174;DHT22;2606;50.934;6.934;2022-09-09T04:08:54;18.10;99.90
5174;DHT22;2606;50.934;6.934;2022-09-09T04:11:20;18.10;99.90
5174;DHT22;2606;50.934;6.934;2022-09-09T04:13:46;18.10;99.90
5174;DHT22;2606;50.934;6.934;2022-09-09T04:16:12;18.10;99.90
5174;DHT22;2606;50.934;6.934;2022-09-09T04:18:41;18.10;99.90
5174;DHT22;2606;50.934;6.934;2022-09-09T04:21:06;18.10;99.90
5174;DHT22;2606;50.934;6.934;2022-09-09T04:23:33;18.10;99.90
5174;DHT22;2606;50.934;6.934;2022-09-09T04:26:01;18.10;99.90
5174;DHT22;2606;50.934;6.934;2022-09-09T04:28:30;18.10;99.90
5174;DHT22;2606;50.934;6.934;2022-09-09T04:30:56;18.10;99.90
5174;DHT22;2606;50.934;6.934;2022-09-09T04:33:24;18.00;99.90
5174;DHT22;2606;50.934;6.934;2022-09-09T04:35:53;18.00;99.90
5174;DHT22;2606;50.934;6.934;2022-09-09T04:38:19;18.10;99.90
5174;DHT22;2606;50.934;6.934;2022-09-09T04:40:49;18.10;99.90
5174;DHT22;2606;50.934;6.934;2022-09-09T04:43:16;18.00;99.90
5174;DHT22;2606;50.934;6.934;2022-09-09T04:45:43;18.00;99.90
5174;DHT22;2606;50.934;6.934;2022-09-09T04:48:09;18.10;99.90
5174;DHT22;2606;50.934;6.934;2022-09-09T04:50:37;18.10;99.90
5174;DHT22;2606;50.934;6.934;2022-09-09T04:53:04;18.10;99.90
5174;DHT22;2606;50.934;6.934;2022-09-09T04:55:30;18.10;99.90
5174;DHT22;2606;50.934;6.934;2022-09-09T04:57:56;18.10;99.90
5174;DHT22;2606;50.934;6.934;2022-09-09T05:00:23;18.10;99.90
5174;DHT22;2606;50.934;6.934;2022-09-09T05:02:49;18.20;99.90
5174;DHT22;2606;50.934;6.934;2022-09-09T05:05:14;18.10;99.90
5174;DHT22;2606;50.934;6.934;2022-09-09T05:07:40;18.20;99.90
5174;DHT22;2606;50.934;6.934;2022-09-09T05:10:07;18.10;99.90
5174;DHT22;2606;50.934;6.934;2022-09-09T05:12:33;18.10;99.90
5174;DHT22;2606;50.934;6.934;2022-09-09T05:14:58;18.10;99.90
5174;DHT22;2606;50.934;6.934;2022-09-09T05:17:24;18.10;99.90
5174;DHT22;2606;50.934;6.934;2022-09-09T05:19:49;18.10;99.90
5174;DHT22;2606;50.934;6.934;2022-09-09T05:22:21;18.10;99.90
5174;DHT22;2606;50.934;6.934;2022-09-09T05:24:49;18.10;99.90
5174;DHT22;2606;50.934;6.934;2022-09-09T05:27:17;18.10;99.90
5174;DHT22;2606;50.934;6.934;2022-09-09T05:29:45;18.10;99.90
5174;DHT22;2606;50.934;6.934;2022-09-09T05:32:10;18.00;99.90
5174;DHT22;2606;50.934;6.934;2022-09-09T05:34:36;18.00;99.90
5174;DHT22;2606;50.934;6.934;2022-09-09T05:37:03;18.00;99.90
5174;DHT22;2606;50.934;6.934;2022-09-09T05:39:29;18.00;99.90
5174;DHT22;2606;50.934;6.934;2022-09-09T05:41:55;18.10;99.90
5174;DHT22;2606;50.934;6.934;2022-09-09T05:44:21;18.00;99.90
5174;DHT22;2606;50.934;6.934;2022-09-09T05:46:48;18.00;99.90
5174;DHT22;2606;50.934;6.934;2022-09-09T05:49:14;18.00;99.90
5174;DHT22;2606;50.934;6.934;2022-09-09T05:51:41;18.10;99.90
5174;DHT22;2606;50.934;6.934;2022-09-09T05:54:08;18.00;99.90
5174;DHT22;2606;50.934;6.934;2022-09-09T05:56:34;18.10;99.90
5174;DHT22;2606;50.934;6.934;2022-09-09T05:58:59;18.10;99.90
5174;DHT22;2606;50.934;6.934;2022-09-09T06:01:28;18.00;99.90
5174;DHT22;2606;50.934;6.934;2022-09-09T06:03:54;18.10;99.90
5174;DHT22;2606;50.934;6.934;2022-09-09T06:06:30;18.10;99.90
5174;DHT22;2606;50.934;6.934;2022-09-09T06:08:57;18.10;99.90
5174;DHT22;2606;50.934;6.934;2022-09-09T06:11:26;18.10;99.90
5174;DHT22;2606;50.934;6.934;2022-09-09T06:13:52;18.20;99.90
5174;DHT22;2606;50.934;6.934;2022-09-09T06:16:21;18.20;99.90
5174;DHT22;2606;50.934;6.934;2022-09-09T06:18:49;18.10;99.90
5174;DHT22;2606;50.934;6.934;2022-09-09T06:21:18;18.20;99.90
5174;DHT22;2606;50.934;6.934;2022-09-09T06:23:44;18.20;99.90
5174;DHT22;2606;50.934;6.934;2022-09-09T06:26:12;18.20;99.90
5174;DHT22;2606;50.934;6.934;2022-09-09T06:28:38;18.20;99.90
5174;DHT22;2606;50.934;6.934;2022-09-09T06:31:06;18.20;99.90
5174;DHT22;2606;50.934;6.934;2022-09-09T06:33:35;18.20;99.90
5174;DHT22;2606;50.934;6.934;2022-09-09T06:36:02;18.30;99.90
5174;DHT22;2606;50.934;6.934;2022-09-09T06:38:29;18.30;99.90
5174;DHT22;2606;50.934;6.934;2022-09-09T06:40:55;18.30;99.90
5174;DHT22;2606;50.934;6.934;2022-09-09T06:43:22;18.30;99.90
5174;DHT22;2606;50.934;6.934;2022-09-09T06:45:58;18.40;99.90
5174;DHT22;2606;50.934;6.934;2022-09-09T06:48:24;18.40;99.90
5174;DHT22;2606;50.934;6.934;2022-09-09T06:53:27;18.40;99.90
5174;DHT22;2606;50.934;6.934;2022-09-09T06:55:52;18.40;99.90
5174;DHT22;2606;50.934;6.934;2022-09-09T06:58:18;18.50;99.90
5174;DHT22;2606;50.934;6.934;2022-09-09T07:00:44;18.50;99.90
5174;DHT22;2606;50.934;6.934;2022-09-09T07:03:10;18.60;99.90
5174;DHT22;2606;50.934;6.934;2022-09-09T07:05:36;18.70;99.90
5174;DHT22;2606;50.934;6.934;2022-09-09T07:08:02;18.70;99.90
5174;DHT22;2606;50.934;6.934;2022-09-09T07:10:27;18.80;99.90
5174;DHT22;2606;50.934;6.934;2022-09-09T07:12:53;18.90;99.90
5174;DHT22;2606;50.934;6.934;2022-09-09T07:15:19;19.00;99.90
5174;DHT22;2606;50.934;6.934;2022-09-09T07:17:45;19.00;99.90
5174;DHT22;2606;50.934;6.934;2022-09-09T07:20:11;19.10;99.90
5174;DHT22;2606;50.934;6.934;2022-09-09T07:22:37;19.10;99.90
5174;DHT22;2606;50.934;6.934;2022-09-09T07:25:03;19.20;99.90
5174;DHT22;2606;50.934;6.934;2022-09-09T07:27:29;19.20;99.90
5174;DHT22;2606;50.934;6.934;2022-09-09T07:29:55;19.20;99.90
5174;DHT22;2606;50.934;6.934;2022-09-09T07:32:21;19.30;99.90
5174;DHT22;2606;50.934;6.934;2022-09-09T07:34:46;19.30;99.90
5174;DHT22;2606;50.934;6.934;2022-09-09T07:37:12;19.40;99.90
5174;DHT22;2606;50.934;6.934;2022-09-09T07:39:39;19.40;99.90
5174;DHT22;2606;50.934;6.934;2022-09-09T07:42:05;19.50;99.90
5174;DHT22;2606;50.934;6.934;2022-09-09T07:44:31;19.60;99.90
5174;DHT22;2606;50.934;6.934;2022-09-09T07:47:00;19.70;99.90
5174;DHT22;2606;50.934;6.934;2022-09-09T07:49:26;19.80;99.90
5174;DHT22;2606;50.934;6.934;2022-09-09T07:51:51;19.80;99.90
5174;DHT22;2606;50.934;6.934;2022-09-09T07:54:18;19.80;99.60
5174;DHT22;2606;50.934;6.934;2022-09-09T07:56:49;19.80;99.30
5174;DHT22;2606;50.934;6.934;2022-09-09T07:59:16;19.80;99.00
5174;DHT22;2606;50.934;6.934;2022-09-09T08:01:45;19.80;99.00
5174;DHT22;2606;50.934;6.934;2022-09-09T08:04:14;19.80;98.70
5174;DHT22;2606;50.934;6.934;2022-09-09T08:06:46;19.80;98.60
5174;DHT22;2606;50.934;6.934;2022-09-09T08:09:12;19.80;98.60
5174;DHT22;2606;50.934;6.934;2022-09-09T08:11:40;19.90;98.60
5174;DHT22;2606;50.934;6.934;2022-09-09T08:14:10;19.90;98.30
5174;DHT22;2606;50.934;6.934;2022-09-09T08:16:39;19.80;98.20
5174;DHT22;2606;50.934;6.934;2022-09-09T08:19:05;19.80;98.60
5174;DHT22;2606;50.934;6.934;2022-09-09T08:21:34;19.80;98.50
5174;DHT22;2606;50.934;6.934;2022-09-09T08:24:03;19.80;98.70
5174;DHT22;2606;50.934;6.934;2022-09-09T08:26:32;19.80;98.60
5174;DHT22;2606;50.934;6.934;2022-09-09T08:29:00;19.90;98.60
5174;DHT22;2606;50.934;6.934;2022-09-09T08:31:32;19.80;98.30
5174;DHT22;2606;50.934;6.934;2022-09-09T08:33:59;19.80;98.20
5174;DHT22;2606;50.934;6.934;2022-09-09T08:36:27;19.90;98.10
5174;DHT22;2606;50.934;6.934;2022-09-09T08:38:55;20.00;97.60
5174;DHT22;2606;50.934;6.934;2022-09-09T08:55:27;20.20;95.50
5174;DHT22;2606;50.934;6.934;2022-09-09T08:57:52;20.30;95.50
5174;DHT22;2606;50.934;6.934;2022-09-09T09:00:19;20.30;95.40
5174;DHT22;2606;50.934;6.934;2022-09-09T09:03:09;20.40;95.40
5174;DHT22;2606;50.934;6.934;2022-09-09T09:05:47;20.50;95.30
5174;DHT22;2606;50.934;6.934;2022-09-09T09:08:54;20.60;95.00
5174;DHT22;2606;50.934;6.934;2022-09-09T09:11:11;20.70;94.70
5174;DHT22;2606;50.934;6.934;2022-09-09T09:14:29;20.80;94.60
5174;DHT22;2606;50.934;6.934;2022-09-09T09:17:00;20.90;94.70
5174;DHT22;2606;50.934;6.934;2022-09-09T09:19:28;21.00;94.40
5174;DHT22;2606;50.934;6.934;2022-09-09T09:33:23;21.00;94.30
5174;DHT22;2606;50.934;6.934;2022-09-09T09:35:50;21.00;94.20
5174;DHT22;2606;50.934;6.934;2022-09-09T09:38:24;21.00;94.30
5174;DHT22;2606;50.934;6.934;2022-09-09T09:40:58;20.90;94.60
5174;DHT22;2606;50.934;6.934;2022-09-09T09:43:32;21.00;94.80
5174;DHT22;2606;50.934;6.934;2022-09-09T09:45:58;21.00;94.90
5174;DHT22;2606;50.934;6.934;2022-09-09T09:48:26;21.10;94.80
5174;DHT22;2606;50.934;6.934;2022-09-09T09:50:55;21.20;94.80
5174;DHT22;2606;50.934;6.934;2022-09-09T09:53:29;21.10;94.50
5174;DHT22;2606;50.934;6.934;2022-09-09T09:56:08;21.10;94.30
5174;DHT22;2606;50.934;6.934;2022-09-09T09:58:54;21.20;94.50
5174;DHT22;2606;50.934;6.934;2022-09-09T10:01:24;21.20;94.60
5174;DHT22;2606;50.934;6.934;2022-09-09T10:03:52;21.40;94.60
5174;DHT22;2606;50.934;6.934;2022-09-09T10:06:35;21.60;93.80
5174;DHT22;2606;50.934;6.934;2022-09-09T10:09:03;21.70;93.60
5174;DHT22;2606;50.934;6.934;2022-09-09T10:11:39;21.70;93.20
5174;DHT22;2606;50.934;6.934;2022-09-09T10:14:20;21.70;92.70
5174;DHT22;2606;50.934;6.934;2022-09-09T10:16:50;21.70;92.70
5174;DHT22;2606;50.934;6.934;2022-09-09T10:25:17;21.60;92.80
5174;DHT22;2606;50.934;6.934;2022-09-09T10:28:16;21.50;92.80
5174;DHT22;2606;50.934;6.934;2022-09-09T10:31:23;21.50;92.70
5174;DHT22;2606;50.934;6.934;2022-09-09T10:34:15;21.40;93.00
5174;DHT22;2606;50.934;6.934;2022-09-09T10:36:47;21.40;93.20
5174;DHT22;2606;50.934;6.934;2022-09-09T10:42:05;21.50;93.20
5174;DHT22;2606;50.934;6.934;2022-09-09T10:48:03;21.70;93.20
5174;DHT22;2606;50.934;6.934;2022-09-09T10:50:56;21.80;92.70
5174;DHT22;2606;50.934;6.934;2022-09-09T10:56:12;22.20;91.60
5174;DHT22;2606;50.934;6.934;2022-09-09T11:01:31;22.70;90.80
5174;DHT22;2606;50.934;6.934;2022-09-09T11:04:05;23.00;90.40
5174;DHT22;2606;50.934;6.934;2022-09-09T11:06:39;23.20;90.20
5174;DHT22;2606;50.934;6.934;2022-09-09T11:09:15;23.50;88.90
5174;DHT22;2606;50.934;6.934;2022-09-09T11:11:49;23.60;87.60
5174;DHT22;2606;50.934;6.934;2022-09-09T11:14:33;23.50;87.50
5174;DHT22;2606;50.934;6.934;2022-09-09T11:17:48;23.50;87.30
5174;DHT22;2606;50.934;6.934;2022-09-09T11:20:14;23.50;86.80
5174;DHT22;2606;50.934;6.934;2022-09-09T11:22:58;23.40;86.70
5174;DHT22;2606;50.934;6.934;2022-09-09T11:25:40;23.30;86.80
5174;DHT22;2606;50.934;6.934;2022-09-09T11:37:19;23.10;86.40
5174;DHT22;2606;50.934;6.934;2022-09-09T11:42:22;22.80;86.50
5174;DHT22;2606;50.934;6.934;2022-09-09T11:44:48;22.80;87.20
5174;DHT22;2606;50.934;6.934;2022-09-09T11:47:30;22.70;86.20
5174;DHT22;2606;50.934;6.934;2022-09-09T11:55:10;22.60;86.50
5174;DHT22;2606;50.934;6.934;2022-09-09T11:57:37;22.60;87.20
5174;DHT22;2606;50.934;6.934;2022-09-09T12:00:05;22.60;86.80
5174;DHT22;2606;50.934;6.934;2022-09-09T12:02:31;22.60;86.50
5174;DHT22;2606;50.934;6.934;2022-09-09T12:04:58;22.60;86.60
5174;DHT22;2606;50.934;6.934;2022-09-09T12:07:49;22.60;86.80
5174;DHT22;2606;50.934;6.934;2022-09-09T12:10:31;22.50;86.60
5174;DHT22;2606;50.934;6.934;2022-09-09T12:13:18;22.40;86.00
5174;DHT22;2606;50.934;6.934;2022-09-09T12:15:50;22.40;86.70
5174;DHT22;2606;50.934;6.934;2022-09-09T12:18:33;22.30;86.60
5174;DHT22;2606;50.934;6.934;2022-09-09T12:24:13;22.30;87.50
5174;DHT22;2606;50.934;6.934;2022-09-09T12:26:49;22.30;86.80
5174;DHT22;2606;50.934;6.934;2022-09-09T12:34:54;22.40;87.20
5174;DHT22;2606;50.934;6.934;2022-09-09T12:37:32;22.50;87.00
5174;DHT22;2606;50.934;6.934;2022-09-09T12:40:02;22.50;86.50
5174;DHT22;2606;50.934;6.934;2022-09-09T12:42:29;22.60;86.80
5174;DHT22;2606;50.934;6.934;2022-09-09T12:44:59;22.50;86.70
5174;DHT22;2606;50.934;6.934;2022-09-09T12:48:10;22.50;86.70
5174;DHT22;2606;50.934;6.934;2022-09-09T12:50:31;22.40;87.40
5174;DHT22;2606;50.934;6.934;2022-09-09T12:55:56;22.30;88.70
5174;DHT22;2606;50.934;6.934;2022-09-09T12:58:22;22.40;90.60
5174;DHT22;2606;50.934;6.934;2022-09-09T13:00:53;22.50;90.30
5174;DHT22;2606;50.934;6.934;2022-09-09T13:03:21;22.80;89.90
5174;DHT22;2606;50.934;6.934;2022-09-09T13:05:48;22.80;88.40
5174;DHT22;2606;50.934;6.934;2022-09-09T13:08:15;23.00;88.80
5174;DHT22;2606;50.934;6.934;2022-09-09T13:10:55;23.20;87.60
5174;DHT22;2606;50.934;6.934;2022-09-09T13:13:25;23.20;86.80
5174;DHT22;2606;50.934;6.934;2022-09-09T13:15:56;23.30;86.30
5174;DHT22;2606;50.934;6.934;2022-09-09T13:18:28;23.30;86.00
5174;DHT22;2606;50.934;6.934;2022-09-09T13:20:55;23.10;86.70
5174;DHT22;2606;50.934;6.934;2022-09-09T13:23:32;22.90;87.60
5174;DHT22;2606;50.934;6.934;2022-09-09T13:26:04;22.80;88.30
5174;DHT22;2606;50.934;6.934;2022-09-09T13:28:31;22.80;88.60
5174;DHT22;2606;50.934;6.934;2022-09-09T13:33:38;22.80;89.00
5174;DHT22;2606;50.934;6.934;2022-09-09T13:36:06;22.90;89.00
5174;DHT22;2606;50.934;6.934;2022-09-09T13:38:39;23.00;88.70
5174;DHT22;2606;50.934;6.934;2022-09-09T13:41:08;23.10;88.80
5174;DHT22;2606;50.934;6.934;2022-09-09T13:43:42;23.10;88.90
5174;DHT22;2606;50.934;6.934;2022-09-09T13:46:40;23.20;89.20
5174;DHT22;2606;50.934;6.934;2022-09-09T13:54:11;23.00;89.90
5174;DHT22;2606;50.934;6.934;2022-09-09T13:56:38;23.00;90.10
5174;DHT22;2606;50.934;6.934;2022-09-09T13:59:08;23.00;90.20
5174;DHT22;2606;50.934;6.934;2022-09-09T14:01:34;23.10;90.10
5174;DHT22;2606;50.934;6.934;2022-09-09T14:04:00;23.10;90.00
5174;DHT22;2606;50.934;6.934;2022-09-09T14:06:26;23.10;90.00
5174;DHT22;2606;50.934;6.934;2022-09-09T14:08:53;23.10;90.10
5174;DHT22;2606;50.934;6.934;2022-09-09T14:11:20;23.10;90.20
5174;DHT22;2606;50.934;6.934;2022-09-09T14:13:47;23.00;90.40
5174;DHT22;2606;50.934;6.934;2022-09-09T14:16:15;22.90;90.70
5174;DHT22;2606;50.934;6.934;2022-09-09T14:18:41;22.90;90.90
5174;DHT22;2606;50.934;6.934;2022-09-09T14:21:07;22.70;90.90
5174;DHT22;2606;50.934;6.934;2022-09-09T14:23:34;22.60;91.20
5174;DHT22;2606;50.934;6.934;2022-09-09T14:25:59;22.50;91.40
5174;DHT22;2606;50.934;6.934;2022-09-09T14:28:25;22.50;91.60
5174;DHT22;2606;50.934;6.934;2022-09-09T14:30:54;22.40;91.80
5174;DHT22;2606;50.934;6.934;2022-09-09T14:33:20;22.30;92.00
5174;DHT22;2606;50.934;6.934;2022-09-09T14:35:46;22.00;96.90
5174;DHT22;2606;50.934;6.934;2022-09-09T14:38:15;21.70;99.50
5174;DHT22;2606;50.934;6.934;2022-09-09T14:40:45;21.40;99.90
5174;DHT22;2606;50.934;6.934;2022-09-09T14:43:12;21.00;99.90
5174;DHT22;2606;50.934;6.934;2022-09-09T14:45:37;20.90;99.90
5174;DHT22;2606;50.934;6.934;2022-09-09T14:48:03;20.80;99.90
5174;DHT22;2606;50.934;6.934;2022-09-09T14:50:29;20.70;99.90
5174;DHT22;2606;50.934;6.934;2022-09-09T14:52:57;20.60;99.90
5174;DHT22;2606;50.934;6.934;2022-09-09T14:55:23;20.60;99.90
5174;DHT22;2606;50.934;6.934;2022-09-09T14:57:48;20.60;99.90
5174;DHT22;2606;50.934;6.934;2022-09-09T15:00:14;20.60;99.90
5174;DHT22;2606;50.934;6.934;2022-09-09T15:02:40;20.70;99.90
5174;DHT22;2606;50.934;6.934;2022-09-09T15:05:08;20.70;99.90
5174;DHT22;2606;50.934;6.934;2022-09-09T15:07:34;20.70;99.90
5174;DHT22;2606;50.934;6.934;2022-09-09T15:09:59;20.80;99.90
5174;DHT22;2606;50.934;6.934;2022-09-09T15:12:25;20.80;99.90
5174;DHT22;2606;50.934;6.934;2022-09-09T15:14:50;20.90;99.90
5174;DHT22;2606;50.934;6.934;2022-09-09T15:17:16;21.00;99.90
5174;DHT22;2606;50.934;6.934;2022-09-09T15:19:42;21.00;99.90
5174;DHT22;2606;50.934;6.934;2022-09-09T15:22:08;20.90;99.90
5174;DHT22;2606;50.934;6.934;2022-09-09T15:24:34;21.00;99.90
5174;DHT22;2606;50.934;6.934;2022-09-09T15:27:00;21.00;99.90
5174;DHT22;2606;50.934;6.934;2022-09-09T15:29:26;21.00;99.90
5174;DHT22;2606;50.934;6.934;2022-09-09T15:31:54;21.00;99.90
5174;DHT22;2606;50.934;6.934;2022-09-09T15:34:20;21.00;99.90
5174;DHT22;2606;50.934;6.934;2022-09-09T15:36:46;21.00;99.90
5174;DHT22;2606;50.934;6.934;2022-09-09T15:39:14;20.90;99.90
5174;DHT22;2606;50.934;6.934;2022-09-09T15:41:44;20.90;99.90
5174;DHT22;2606;50.934;6.934;2022-09-09T15:44:10;20.90;99.90
5174;DHT22;2606;50.934;6.934;2022-09-09T15:46:45;20.90;99.90
5174;DHT22;2606;50.934;6.934;2022-09-09T15:51:43;20.90;99.90
5174;DHT22;2606;50.934;6.934;2022-09-09T15:54:10;20.90;99.90
5174;DHT22;2606;50.934;6.934;2022-09-09T15:56:37;20.90;99.90
5174;DHT22;2606;50.934;6.934;2022-09-09T15:59:03;20.80;99.90
5174;DHT22;2606;50.934;6.934;2022-09-09T16:01:30;20.70;99.90
5174;DHT22;2606;50.934;6.934;2022-09-09T16:03:57;20.70;99.90
5174;DHT22;2606;50.934;6.934;2022-09-09T16:06:24;20.60;99.90
5174;DHT22;2606;50.934;6.934;2022-09-09T16:08:52;20.50;99.90
5174;DHT22;2606;50.934;6.934;2022-09-09T16:11:23;20.40;99.90
5174;DHT22;2606;50.934;6.934;2022-09-09T16:13:53;20.30;99.90
5174;DHT22;2606;50.934;6.934;2022-09-09T16:16:23;20.20;99.90
5174;DHT22;2606;50.934;6.934;2022-09-09T16:18:58;20.10;99.90
5174;DHT22;2606;50.934;6.934;2022-09-09T16:21:30;20.00;99.90
5174;DHT22;2606;50.934;6.934;2022-09-09T16:23:58;20.00;99.90
5174;DHT22;2606;50.934;6.934;2022-09-09T16:26:28;19.90;99.90
5174;DHT22;2606;50.934;6.934;2022-09-09T16:28:53;19.90;99.90
5174;DHT22;2606;50.934;6.934;2022-09-09T16:31:24;19.80;99.90
5174;DHT22;2606;50.934;6.934;2022-09-09T16:33:51;19.90;99.90
5174;DHT22;2606;50.934;6.934;2022-09-09T16:36:22;19.90;99.90
5174;DHT22;2606;50.934;6.934;2022-09-09T16:38:51;19.90;99.90
5174;DHT22;2606;50.934;6.934;2022-09-09T16:41:17;19.90;99.90
5174;DHT22;2606;50.934;6.934;2022-09-09T16:43:42;19.80;99.90
5174;DHT22;2606;50.934;6.934;2022-09-09T16:46:17;19.80;99.90
5174;DHT22;2606;50.934;6.934;2022-09-09T16:48:44;19.80;99.90
5174;DHT22;2606;50.934;6.934;2022-09-09T16:51:14;19.80;99.90
5174;DHT22;2606;50.934;6.934;2022-09-09T16:53:41;19.80;99.90
5174;DHT22;2606;50.934;6.934;2022-09-09T16:56:10;19.80;99.90
5174;DHT22;2606;50.934;6.934;2022-09-09T16:58:36;19.80;99.90
5174;DHT22;2606;50.934;6.934;2022-09-09T17:01:02;19.80;99.90
5174;DHT22;2606;50.934;6.934;2022-09-09T17:03:29;19.90;99.90
5174;DHT22;2606;50.934;6.934;2022-09-09T17:05:54;19.90;99.90
5174;DHT22;2606;50.934;6.934;2022-09-09T17:08:20;19.90;99.90
5174;DHT22;2606;50.934;6.934;2022-09-09T17:10:46;19.80;99.90
5174;DHT22;2606;50.934;6.934;2022-09-09T17:13:13;19.80;99.90
5174;DHT22;2606;50.934;6.934;2022-09-09T17:15:40;19.80;99.90
5174;DHT22;2606;50.934;6.934;2022-09-09T17:18:08;19.80;99.90
5174;DHT22;2606;50.934;6.934;2022-09-09T17:20:41;19.70;99.90
5174;DHT22;2606;50.934;6.934;2022-09-09T17:23:08;19.70;99.90
5174;DHT22;2606;50.934;6.934;2022-09-09T17:25:35;19.70;99.90
5174;DHT22;2606;50.934;6.934;2022-09-09T17:28:01;19.60;99.90
5174;DHT22;2606;50.934;6.934;2022-09-09T17:30:30;19.60;99.90
5174;DHT22;2606;50.934;6.934;2022-09-09T17:32:56;19.60;99.90
5174;DHT22;2606;50.934;6.934;2022-09-09T17:35:22;19.50;99.90
5174;DHT22;2606;50.934;6.934;2022-09-09T17:37:47;19.50;99.90
5174;DHT22;2606;50.934;6.934;2022-09-09T17:40:13;19.50;99.90
5174;DHT22;2606;50.934;6.934;2022-09-09T17:42:39;19.40;99.90
5174;DHT22;2606;50.934;6.934;2022-09-09T17:45:06;19.40;99.90
5174;DHT22;2606;50.934;6.934;2022-09-09T17:47:32;19.30;99.90
5174;DHT22;2606;50.934;6.934;2022-09-09T17:49:57;19.30;99.90
5174;DHT22;2606;50.934;6.934;2022-09-09T17:52:24;19.30;99.90
5174;DHT22;2606;50.934;6.934;2022-09-09T17:54:49;19.20;99.90
5174;DHT22;2606;50.934;6.934;2022-09-09T17:57:15;19.20;99.90
5174;DHT22;2606;50.934;6.934;2022-09-09T17:59:43;19.10;99.90
5174;DHT22;2606;50.934;6.934;2022-09-09T18:02:11;19.10;99.90
5174;DHT22;2606;50.934;6.934;2022-09-09T18:04:39;19.10;99.90
5174;DHT22;2606;50.934;6.934;2022-09-09T18:07:07;19.00;99.90
5174;DHT22;2606;50.934;6.934;2022-09-09T18:09:33;19.00;99.90
5174;DHT22;2606;50.934;6.934;2022-09-09T18:11:59;19.00;99.90
5174;DHT22;2606;50.934;6.934;2022-09-09T18:14:28;18.90;99.90
5174;DHT22;2606;50.934;6.934;2022-09-09T18:16:56;18.80;99.90
5174;DHT22;2606;50.934;6.934;2022-09-09T18:19:25;18.80;99.90
5174;DHT22;2606;50.934;6.934;2022-09-09T18:21:51;18.80;99.90
5174;DHT22;2606;50.934;6.934;2022-09-09T18:24:19;18.80;99.90
5174;DHT22;2606;50.934;6.934;2022-09-09T18:26:45;18.80;99.90
5174;DHT22;2606;50.934;6.934;2022-09-09T18:29:18;18.70;99.90
5174;DHT22;2606;50.934;6.934;2022-09-09T18:31:45;18.70;99.90